sensor_id;sensor_type;location;lat;lon;timestamp;pressure;altitude;pressure_sealevel;temperature;humidity
45621;BME280;31345;51.522;10.702;2023-03-21T00:02:04;99228.13;;;7.54;100.00
45621;BME280;31345;51.522;10.702;2023-03-21T00:04:36;99231.00;;;7.48;100.00
45621;BME280;31345;51.522;10.702;2023-03-21T00:07:09;99227.47;;;7.49;100.00
45621;BME280;31345;51.522;10.702;2023-03-21T00:09:41;99229.19;;;7.50;100.00
45621;BME280;31345;51.522;10.702;2023-03-21T00:12:15;99228.41;;;7.48;100.00
45621;BME280;31345;51.522;10.702;2023-03-21T00:14:51;99230.94;;;7.49;100.00
45621;BME280;31345;51.522;10.702;2023-03-21T00:17:24;99226.06;;;7.43;100.00
45621;BME280;31345;51.522;10.702;2023-03-21T00:19:57;99227.66;;;7.46;100.00
45621;BME280;31345;51.522;10.702;2023-03-21T00:22:26;99223.34;;;7.44;100.00
45621;BME280;31345;51.522;10.702;2023-03-21T00:24:53;99217.94;;;7.49;100.00
45621;BME280;31345;51.522;10.702;2023-03-21T00:27:28;99215.94;;;7.54;100.00
45621;BME280;31345;51.522;10.702;2023-03-21T00:30:00;99220.53;;;7.49;100.00
45621;BME280;31345;51.522;10.702;2023-03-21T00:32:28;99217.19;;;7.47;100.00
45621;BME280;31345;51.522;10.702;2023-03-21T00:34:55;99220.94;;;7.59;100.00
45621;BME280;31345;51.522;10.702;2023-03-21T00:37:28;99222.97;;;7.52;100.00
45621;BME280;31345;51.522;10.702;2023-03-21T00:39:55;99213.66;;;7.48;100.00
45621;BME280;31345;51.522;10.702;2023-03-21T00:42:29;99218.63;;;7.53;100.00
45621;BME280;31345;51.522;10.702;2023-03-21T00:45:03;99210.13;;;7.49;100.00
45621;BME280;31345;51.522;10.702;2023-03-21T00:47:36;99204.75;;;7.52;100.00
45621;BME280;31345;51.522;10.702;2023-03-21T00:50:10;99206.31;;;7.39;100.00
45621;BME280;31345;51.522;10.702;2023-03-21T00:52:43;99204.84;;;7.51;100.00
45621;BME280;31345;51.522;10.702;2023-03-21T00:55:17;99202.16;;;7.52;100.00
45621;BME280;31345;51.522;10.702;2023-03-21T00:57:46;99199.63;;;7.51;100.00
45621;BME280;31345;51.522;10.702;2023-03-21T01:00:15;99196.44;;;7.46;100.00
45621;BME280;31345;51.522;10.702;2023-03-21T01:02:48;99191.91;;;7.49;100.00
45621;BME280;31345;51.522;10.702;2023-03-21T01:05:23;99194.34;;;7.52;100.00
45621;BME280;31345;51.522;10.702;2023-03-21T01:08:10;99193.13;;;7.42;100.00
45621;BME280;31345;51.522;10.702;2023-03-21T01:10:45;99190.47;;;7.43;100.00
45621;BME280;31345;51.522;10.702;2023-03-21T01:13:16;99192.13;;;7.44;100.00
45621;BME280;31345;51.522;10.702;2023-03-21T01:15:46;99186.19;;;7.42;100.00
45621;BME280;31345;51.522;10.702;2023-03-21T01:18:21;99188.31;;;7.52;100.00
45621;BME280;31345;51.522;10.702;2023-03-21T01:20:56;99190.84;;;7.53;100.00
45621;BME280;31345;51.522;10.702;2023-03-21T01:23:29;99187.63;;;7.48;100.00
45621;BME280;31345;51.522;10.702;2023-03-21T01:25:57;99183.34;;;7.47;100.00
45621;BME280;31345;51.522;10.702;2023-03-21T01:28:27;99181.44;;;7.51;100.00
45621;BME280;31345;51.522;10.702;2023-03-21T01:31:01;99184.19;;;7.48;100.00
45621;BME280;31345;51.522;10.702;2023-03-21T01:33:34;99179.31;;;7.41;100.00
45621;BME280;31345;51.522;10.702;2023-03-21T01:36:16;99187.25;;;7.38;100.00
45621;BME280;31345;51.522;10.702;2023-03-21T01:38:44;99180.13;;;7.42;100.00
45621;BME280;31345;51.522;10.702;2023-03-21T01:41:20;99185.25;;;7.43;100.00
45621;BME280;31345;51.522;10.702;2023-03-21T01:43:57;99180.75;;;7.47;100.00
45621;BME280;31345;51.522;10.702;2023-03-21T01:46:45;99181.91;;;7.41;100.00
45621;BME280;31345;51.522;10.702;2023-03-21T01:49:32;99178.88;;;7.33;100.00
45621;BME280;31345;51.522;10.702;2023-03-21T01:52:17;99178.88;;;7.33;100.00
45621;BME280;31345;51.522;10.702;2023-03-21T01:54:52;99177.22;;;7.30;100.00
45621;BME280;31345;51.522;10.702;2023-03-21T01:57:29;99171.06;;;7.33;100.00
45621;BME280;31345;51.522;10.702;2023-03-21T02:00:08;99173.75;;;7.31;100.00
45621;BME280;31345;51.522;10.702;2023-03-21T02:02:59;99175.47;;;7.31;100.00
45621;BME280;31345;51.522;10.702;2023-03-21T02:05:40;99172.72;;;7.34;100.00
45621;BME280;31345;51.522;10.702;2023-03-21T02:08:14;99168.19;;;7.38;100.00
45621;BME280;31345;51.522;10.702;2023-03-21T02:10:48;99164.78;;;7.37;100.00
45621;BME280;31345;51.522;10.702;2023-03-21T02:13:32;99160.56;;;7.35;100.00
45621;BME280;31345;51.522;10.702;2023-03-21T02:16:11;99155.44;;;7.33;100.00
45621;BME280;31345;51.522;10.702;2023-03-21T02:18:54;99155.28;;;7.36;100.00
45621;BME280;31345;51.522;10.702;2023-03-21T02:21:46;99157.94;;;7.35;100.00
45621;BME280;31345;51.522;10.702;2023-03-21T02:24:45;99147.53;;;7.35;100.00
45621;BME280;31345;51.522;10.702;2023-03-21T02:27:20;99146.81;;;7.33;100.00
45621;BME280;31345;51.522;10.702;2023-03-21T02:30:28;99149.16;;;7.37;100.00
45621;BME280;31345;51.522;10.702;2023-03-21T02:33:22;99150.84;;;7.38;100.00
45621;BME280;31345;51.522;10.702;2023-03-21T02:36:15;99143.84;;;7.23;100.00
45621;BME280;31345;51.522;10.702;2023-03-21T02:38:53;99147.25;;;7.41;100.00
45621;BME280;31345;51.522;10.702;2023-03-21T02:41:34;99149.47;;;7.31;100.00
45621;BME280;31345;51.522;10.702;2023-03-21T02:44:13;99142.75;;;7.27;100.00
45621;BME280;31345;51.522;10.702;2023-03-21T02:46:52;99143.28;;;7.34;100.00
45621;BME280;31345;51.522;10.702;2023-03-21T02:49:30;99146.72;;;7.16;100.00
45621;BME280;31345;51.522;10.702;2023-03-21T02:52:08;99148.72;;;7.11;100.00
45621;BME280;31345;51.522;10.702;2023-03-21T02:54:45;99145.47;;;7.08;100.00
45621;BME280;31345;51.522;10.702;2023-03-21T02:57:21;99140.34;;;7.06;100.00
45621;BME280;31345;51.522;10.702;2023-03-21T02:59:51;99152.63;;;7.02;100.00
45621;BME280;31345;51.522;10.702;2023-03-21T03:02:27;99146.22;;;7.10;100.00
45621;BME280;31345;51.522;10.702;2023-03-21T03:05:08;99135.72;;;7.11;100.00
45621;BME280;31345;51.522;10.702;2023-03-21T03:07:54;99142.09;;;7.05;100.00
45621;BME280;31345;51.522;10.702;2023-03-21T03:10:38;99132.38;;;7.09;100.00
45621;BME280;31345;51.522;10.702;2023-03-21T03:13:26;99131.84;;;7.20;100.00
45621;BME280;31345;51.522;10.702;2023-03-21T03:16:05;99130.75;;;7.24;100.00
45621;BME280;31345;51.522;10.702;2023-03-21T03:18:40;99126.03;;;7.15;100.00
45621;BME280;31345;51.522;10.702;2023-03-21T03:21:15;99129.47;;;7.15;100.00
45621;BME280;31345;51.522;10.702;2023-03-21T03:23:48;99130.06;;;7.21;100.00
45621;BME280;31345;51.522;10.702;2023-03-21T03:26:25;99122.94;;;7.24;100.00
45621;BME280;31345;51.522;10.702;2023-03-21T03:29:05;99123.03;;;7.23;100.00
45621;BME280;31345;51.522;10.702;2023-03-21T03:31:38;99119.19;;;7.30;100.00
45621;BME280;31345;51.522;10.702;2023-03-21T03:34:15;99118.94;;;7.35;100.00
45621;BME280;31345;51.522;10.702;2023-03-21T03:36:54;99121.72;;;7.31;100.00
45621;BME280;31345;51.522;10.702;2023-03-21T03:39:32;99123.97;;;7.22;100.00
45621;BME280;31345;51.522;10.702;2023-03-21T03:42:12;99127.22;;;7.25;100.00
45621;BME280;31345;51.522;10.702;2023-03-21T03:44:42;99121.28;;;7.23;100.00
45621;BME280;31345;51.522;10.702;2023-03-21T03:47:16;99123.53;;;7.29;100.00
45621;BME280;31345;51.522;10.702;2023-03-21T03:49:56;99125.00;;;7.35;100.00
45621;BME280;31345;51.522;10.702;2023-03-21T03:52:35;99125.00;;;7.35;100.00
45621;BME280;31345;51.522;10.702;2023-03-21T03:55:16;99124.41;;;7.46;100.00
45621;BME280;31345;51.522;10.702;2023-03-21T03:57:55;99128.44;;;7.36;100.00
45621;BME280;31345;51.522;10.702;2023-03-21T04:00:31;99126.91;;;7.31;100.00
45621;BME280;31345;51.522;10.702;2023-03-21T04:03:04;99123.84;;;7.41;100.00
45621;BME280;31345;51.522;10.702;2023-03-21T04:05:32;99120.19;;;7.27;100.00
45621;BME280;31345;51.522;10.702;2023-03-21T04:08:05;99129.88;;;7.41;100.00
45621;BME280;31345;51.522;10.702;2023-03-21T04:10:44;99120.13;;;7.29;100.00
45621;BME280;31345;51.522;10.702;2023-03-21T04:13:14;99116.66;;;7.28;100.00
45621;BME280;31345;51.522;10.702;2023-03-21T04:16:05;99119.44;;;7.25;100.00
45621;BME280;31345;51.522;10.702;2023-03-21T04:18:39;99120.84;;;7.15;100.00
45621;BME280;31345;51.522;10.702;2023-03-21T04:21:08;99115.72;;;7.13;100.00
45621;BME280;31345;51.522;10.702;2023-03-21T04:23:43;99120.91;;;7.13;100.00
45621;BME280;31345;51.522;10.702;2023-03-21T04:26:10;99113.84;;;7.15;100.00
45621;BME280;31345;51.522;10.702;2023-03-21T04:28:44;99122.25;;;7.21;100.00
45621;BME280;31345;51.522;10.702;2023-03-21T04:31:36;99118.22;;;7.15;100.00
45621;BME280;31345;51.522;10.702;2023-03-21T04:34:10;99117.53;;;7.11;100.00
45621;BME280;31345;51.522;10.702;2023-03-21T04:36:42;99125.41;;;7.10;100.00
45621;BME280;31345;51.522;10.702;2023-03-21T04:39:16;99120.22;;;7.10;100.00
45621;BME280;31345;51.522;10.702;2023-03-21T04:41:52;99122.97;;;7.07;100.00
45621;BME280;31345;51.522;10.702;2023-03-21T04:44:27;99120.34;;;7.07;100.00
45621;BME280;31345;51.522;10.702;2023-03-21T04:46:55;99114.84;;;7.13;100.00
45621;BME280;31345;51.522;10.702;2023-03-21T04:49:28;99118.06;;;7.18;100.00
45621;BME280;31345;51.522;10.702;2023-03-21T04:52:01;99119.75;;;7.19;100.00
45621;BME280;31345;51.522;10.702;2023-03-21T04:54:33;99115.22;;;7.23;100.00
45621;BME280;31345;51.522;10.702;2023-03-21T04:57:02;99111.31;;;7.14;100.00
45621;BME280;31345;51.522;10.702;2023-03-21T04:59:36;99124.25;;;7.15;100.00
45621;BME280;31345;51.522;10.702;2023-03-21T05:02:09;99115.78;;;7.12;100.00
45621;BME280;31345;51.522;10.702;2023-03-21T05:04:42;99108.00;;;7.28;100.00
45621;BME280;31345;51.522;10.702;2023-03-21T05:07:10;99108.19;;;7.25;100.00
45621;BME280;31345;51.522;10.702;2023-03-21T05:09:42;99107.50;;;7.21;100.00
45621;BME280;31345;51.522;10.702;2023-03-21T05:12:10;99110.19;;;7.20;100.00
45621;BME280;31345;51.522;10.702;2023-03-21T05:14:44;99111.19;;;7.17;100.00
45621;BME280;31345;51.522;10.702;2023-03-21T05:17:12;99113.03;;;7.15;100.00
45621;BME280;31345;51.522;10.702;2023-03-21T05:19:50;99111.31;;;7.14;100.00
45621;BME280;31345;51.522;10.702;2023-03-21T05:22:18;99114.38;;;7.22;100.00
45621;BME280;31345;51.522;10.702;2023-03-21T05:24:52;99111.47;;;7.28;100.00
45621;BME280;31345;51.522;10.702;2023-03-21T05:27:35;99115.44;;;7.36;100.00
45621;BME280;31345;51.522;10.702;2023-03-21T05:30:16;99115.22;;;7.23;100.00
45621;BME280;31345;51.522;10.702;2023-03-21T05:32:51;99111.25;;;7.15;100.00
45621;BME280;31345;51.522;10.702;2023-03-21T05:35:19;99112.69;;;7.21;100.00
45621;BME280;31345;51.522;10.702;2023-03-21T05:37:47;99114.78;;;7.14;100.00
45621;BME280;31345;51.522;10.702;2023-03-21T05:40:20;99109.13;;;7.06;100.00
45621;BME280;31345;51.522;10.702;2023-03-21T05:42:53;99112.66;;;7.05;100.00
45621;BME280;31345;51.522;10.702;2023-03-21T05:45:24;99110.81;;;7.07;100.00
45621;BME280;31345;51.522;10.702;2023-03-21T05:47:53;99112.94;;;7.16;100.00
45621;BME280;31345;51.522;10.702;2023-03-21T05:50:27;99115.09;;;7.08;100.00
45621;BME280;31345;51.522;10.702;2023-03-21T05:53:07;99104.00;;;7.04;100.00
45621;BME280;31345;51.522;10.702;2023-03-21T05:55:40;99117.69;;;7.08;100.00
45621;BME280;31345;51.522;10.702;2023-03-21T05:58:18;99109.44;;;7.17;100.00
45621;BME280;31345;51.522;10.702;2023-03-21T06:00:56;99114.78;;;7.14;100.00
45621;BME280;31345;51.522;10.702;2023-03-21T06:03:35;99118.91;;;7.18;100.00
45621;BME280;31345;51.522;10.702;2023-03-21T06:06:12;99119.06;;;7.15;100.00
45621;BME280;31345;51.522;10.702;2023-03-21T06:08:47;99121.03;;;7.28;100.00
45621;BME280;31345;51.522;10.702;2023-03-21T06:11:25;99120.00;;;7.48;100.00
45621;BME280;31345;51.522;10.702;2023-03-21T06:14:10;99111.19;;;7.51;100.00
45621;BME280;31345;51.522;10.702;2023-03-21T06:16:45;99113.00;;;7.49;100.00
45621;BME280;31345;51.522;10.702;2023-03-21T06:19:14;99117.00;;;7.56;100.00
45621;BME280;31345;51.522;10.702;2023-03-21T06:21:56;99108.75;;;7.48;100.00
45621;BME280;31345;51.522;10.702;2023-03-21T06:24:29;99107.28;;;7.60;100.00
45621;BME280;31345;51.522;10.702;2023-03-21T06:27:02;99103.91;;;7.57;100.00
45621;BME280;31345;51.522;10.702;2023-03-21T06:29:41;99106.06;;;7.49;100.00
45621;BME280;31345;51.522;10.702;2023-03-21T06:32:18;99105.13;;;7.50;100.00
45621;BME280;31345;51.522;10.702;2023-03-21T06:34:52;99106.75;;;7.53;100.00
45621;BME280;31345;51.522;10.702;2023-03-21T06:37:25;99114.47;;;7.54;100.00
45621;BME280;31345;51.522;10.702;2023-03-21T06:39:58;99102.84;;;7.62;100.00
45621;BME280;31345;51.522;10.702;2023-03-21T06:42:26;99105.78;;;7.72;100.00
45621;BME280;31345;51.522;10.702;2023-03-21T06:45:01;99103.59;;;7.80;100.00
45621;BME280;31345;51.522;10.702;2023-03-21T06:47:35;99102.44;;;7.86;100.00
45621;BME280;31345;51.522;10.702;2023-03-21T06:50:11;99093.53;;;8.06;100.00
45621;BME280;31345;51.522;10.702;2023-03-21T06:52:41;99095.53;;;8.33;100.00
45621;BME280;31345;51.522;10.702;2023-03-21T06:55:15;99090.03;;;8.38;100.00
45621;BME280;31345;51.522;10.702;2023-03-21T06:57:49;99096.25;;;8.51;100.00
45621;BME280;31345;51.522;10.702;2023-03-21T07:00:22;99099.03;;;8.48;100.00
45621;BME280;31345;51.522;10.702;2023-03-21T07:02:57;99098.25;;;8.46;100.00
45621;BME280;31345;51.522;10.702;2023-03-21T07:05:31;99100.75;;;8.78;100.00
45621;BME280;31345;51.522;10.702;2023-03-21T07:07:59;99089.59;;;8.76;100.00
45621;BME280;31345;51.522;10.702;2023-03-21T07:10:37;99094.28;;;8.55;100.00
45621;BME280;31345;51.522;10.702;2023-03-21T07:13:06;99099.91;;;8.63;100.00
45621;BME280;31345;51.522;10.702;2023-03-21T07:15:47;99096.09;;;8.69;100.00
45621;BME280;31345;51.522;10.702;2023-03-21T07:18:21;99090.91;;;8.53;100.00
45621;BME280;31345;51.522;10.702;2023-03-21T07:20:53;99096.75;;;8.42;100.00
45621;BME280;31345;51.522;10.702;2023-03-21T07:23:26;99095.31;;;8.52;100.00
45621;BME280;31345;51.522;10.702;2023-03-21T07:25:59;99096.72;;;8.58;100.00
45621;BME280;31345;51.522;10.702;2023-03-21T07:28:27;99105.38;;;8.58;100.00
45621;BME280;31345;51.522;10.702;2023-03-21T07:30:58;99100.16;;;8.58;100.00
45621;BME280;31345;51.522;10.702;2023-03-21T07:33:28;99099.63;;;8.68;100.00
45621;BME280;31345;51.522;10.702;2023-03-21T07:36:08;99103.44;;;8.62;100.00
45621;BME280;31345;51.522;10.702;2023-03-21T07:38:42;99102.16;;;8.69;100.00
45621;BME280;31345;51.522;10.702;2023-03-21T07:41:11;99101.84;;;8.59;100.00
45621;BME280;31345;51.522;10.702;2023-03-21T07:43:39;99104.06;;;8.82;100.00
45621;BME280;31345;51.522;10.702;2023-03-21T07:46:09;99101.28;;;8.85;100.00
45621;BME280;31345;51.522;10.702;2023-03-21T07:48:38;99096.16;;;8.98;100.00
45621;BME280;31345;51.522;10.702;2023-03-21T07:51:11;99101.22;;;9.16;100.00
45621;BME280;31345;51.522;10.702;2023-03-21T07:53:41;99096.44;;;9.08;100.00
45621;BME280;31345;51.522;10.702;2023-03-21T07:56:18;99090.94;;;8.98;100.00
45621;BME280;31345;51.522;10.702;2023-03-21T07:58:47;99096.66;;;9.19;100.00
45621;BME280;31345;51.522;10.702;2023-03-21T08:01:19;99096.38;;;9.24;100.00
45621;BME280;31345;51.522;10.702;2023-03-21T08:03:49;99089.56;;;9.21;100.00
45621;BME280;31345;51.522;10.702;2023-03-21T08:06:26;99093.00;;;9.22;100.00
45621;BME280;31345;51.522;10.702;2023-03-21T08:09:02;99084.91;;;9.27;100.00
45621;BME280;31345;51.522;10.702;2023-03-21T08:11:35;99088.75;;;9.35;100.00
45621;BME280;31345;51.522;10.702;2023-03-21T08:14:02;99078.50;;;9.32;100.00
45621;BME280;31345;51.522;10.702;2023-03-21T08:16:35;99078.28;;;9.65;100.00
45621;BME280;31345;51.522;10.702;2023-03-21T08:19:04;99082.47;;;9.95;100.00
45621;BME280;31345;51.522;10.702;2023-03-21T08:21:31;99083.78;;;9.60;100.00
45621;BME280;31345;51.522;10.702;2023-03-21T08:24:04;99080.97;;;9.63;100.00
45621;BME280;31345;51.522;10.702;2023-03-21T08:26:32;99079.31;;;9.62;100.00
45621;BME280;31345;51.522;10.702;2023-03-21T08:29:06;99080.88;;;9.79;100.00
45621;BME280;31345;51.522;10.702;2023-03-21T08:31:34;99082.97;;;10.01;100.00
45621;BME280;31345;51.522;10.702;2023-03-21T08:34:08;99078.53;;;9.74;100.00
45621;BME280;31345;51.522;10.702;2023-03-21T08:36:36;99084.78;;;9.72;100.00
45621;BME280;31345;51.522;10.702;2023-03-21T08:39:04;99087.34;;;9.86;100.00
45621;BME280;31345;51.522;10.702;2023-03-21T08:41:37;99086.47;;;9.73;100.00
45621;BME280;31345;51.522;10.702;2023-03-21T08:44:10;99085.50;;;9.88;100.00
45621;BME280;31345;51.522;10.702;2023-03-21T08:46:37;99089.88;;;9.88;100.00
45621;BME280;31345;51.522;10.702;2023-03-21T08:49:11;99087.50;;;9.70;100.00
45621;BME280;31345;51.522;10.702;2023-03-21T08:51:43;99088.63;;;9.66;100.00
45621;BME280;31345;51.522;10.702;2023-03-21T08:54:19;99089.63;;;9.78;100.00
45621;BME280;31345;51.522;10.702;2023-03-21T08:56:51;99089.25;;;10.26;100.00
45621;BME280;31345;51.522;10.702;2023-03-21T08:59:24;99090.94;;;10.13;100.00
45621;BME280;31345;51.522;10.702;2023-03-21T09:01:56;99086.78;;;9.96;100.00
45621;BME280;31345;51.522;10.702;2023-03-21T09:04:25;99087.34;;;10.28;100.00
45621;BME280;31345;51.522;10.702;2023-03-21T09:06:58;99084.00;;;10.26;100.00
45621;BME280;31345;51.522;10.702;2023-03-21T09:09:35;99080.88;;;10.34;100.00
45621;BME280;31345;51.522;10.702;2023-03-21T09:12:03;99079.13;;;10.35;100.00
45621;BME280;31345;51.522;10.702;2023-03-21T09:14:32;99077.38;;;10.35;100.00
45621;BME280;31345;51.522;10.702;2023-03-21T09:17:04;99083.75;;;10.44;100.00
45621;BME280;31345;51.522;10.702;2023-03-21T09:19:38;99073.00;;;10.49;100.00
45621;BME280;31345;51.522;10.702;2023-03-21T09:22:11;99076.75;;;10.45;100.00
45621;BME280;31345;51.522;10.702;2023-03-21T09:24:46;99077.00;;;10.68;100.00
45621;BME280;31345;51.522;10.702;2023-03-21T09:27:19;99068.66;;;10.75;100.00
45621;BME280;31345;51.522;10.702;2023-03-21T09:29:53;99074.19;;;10.84;100.00
45621;BME280;31345;51.522;10.702;2023-03-21T09:32:25;99072.72;;;11.18;100.00
45621;BME280;31345;51.522;10.702;2023-03-21T09:34:59;99072.22;;;11.26;100.00
45621;BME280;31345;51.522;10.702;2023-03-21T09:37:32;99067.88;;;11.51;100.00
45621;BME280;31345;51.522;10.702;2023-03-21T09:40:13;99069.25;;;11.31;100.00
45621;BME280;31345;51.522;10.702;2023-03-21T09:42:57;99068.97;;;10.97;100.00
45621;BME280;31345;51.522;10.702;2023-03-21T09:45:36;99071.50;;;11.11;100.00
45621;BME280;31345;51.522;10.702;2023-03-21T09:48:18;99068.78;;;11.00;100.00
45621;BME280;31345;51.522;10.702;2023-03-21T09:50:56;99067.84;;;11.14;100.00
45621;BME280;31345;51.522;10.702;2023-03-21T09:53:33;99061.50;;;11.42;100.00
45621;BME280;31345;51.522;10.702;2023-03-21T09:56:08;99062.69;;;11.76;100.00
45621;BME280;31345;51.522;10.702;2023-03-21T09:58:45;99051.38;;;11.75;100.00
45621;BME280;31345;51.522;10.702;2023-03-21T10:01:25;99048.38;;;11.55;100.00
45621;BME280;31345;51.522;10.702;2023-03-21T10:04:01;99048.56;;;11.65;100.00
45621;BME280;31345;51.522;10.702;2023-03-21T10:06:33;99045.66;;;11.94;100.00
45621;BME280;31345;51.522;10.702;2023-03-21T10:09:13;99042.22;;;12.18;99.83
45621;BME280;31345;51.522;10.702;2023-03-21T10:11:49;99047.31;;;12.44;99.90
45621;BME280;31345;51.522;10.702;2023-03-21T10:14:27;99032.91;;;12.50;95.90
45621;BME280;31345;51.522;10.702;2023-03-21T10:17:05;99029.72;;;12.58;95.11
45621;BME280;31345;51.522;10.702;2023-03-21T10:19:42;99032.53;;;12.91;92.63
45621;BME280;31345;51.522;10.702;2023-03-21T10:22:18;99025.34;;;13.04;92.35
45621;BME280;31345;51.522;10.702;2023-03-21T10:24:50;99024.28;;;13.75;94.55
45621;BME280;31345;51.522;10.702;2023-03-21T10:27:22;99020.56;;;13.67;94.51
45621;BME280;31345;51.522;10.702;2023-03-21T10:29:55;99018.34;;;13.16;91.57
45621;BME280;31345;51.522;10.702;2023-03-21T10:32:23;99017.84;;;13.34;92.22
45621;BME280;31345;51.522;10.702;2023-03-21T10:34:56;99015.44;;;13.31;91.80
45621;BME280;31345;51.522;10.702;2023-03-21T10:37:31;99025.00;;;13.09;92.93
45621;BME280;31345;51.522;10.702;2023-03-21T10:40:04;99016.66;;;13.15;93.12
45621;BME280;31345;51.522;10.702;2023-03-21T10:42:38;99016.88;;;12.89;92.11
45621;BME280;31345;51.522;10.702;2023-03-21T10:45:15;99013.91;;;12.82;96.52
45621;BME280;31345;51.522;10.702;2023-03-21T10:47:49;99018.09;;;12.85;93.93
45621;BME280;31345;51.522;10.702;2023-03-21T10:50:28;99010.56;;;12.80;94.93
45621;BME280;31345;51.522;10.702;2023-03-21T10:52:58;99005.78;;;12.74;93.05
45621;BME280;31345;51.522;10.702;2023-03-21T10:55:28;98999.09;;;12.70;92.50
45621;BME280;31345;51.522;10.702;2023-03-21T10:58:01;98998.16;;;12.82;94.10
45621;BME280;31345;51.522;10.702;2023-03-21T11:00:39;99000.91;;;12.92;93.33
45621;BME280;31345;51.522;10.702;2023-03-21T11:03:20;98990.03;;;12.97;91.83
45621;BME280;31345;51.522;10.702;2023-03-21T11:05:55;98996.38;;;13.17;94.51
45621;BME280;31345;51.522;10.702;2023-03-21T11:08:29;98992.09;;;13.16;94.49
45621;BME280;31345;51.522;10.702;2023-03-21T11:11:04;98997.34;;;13.16;95.81
45621;BME280;31345;51.522;10.702;2023-03-21T11:13:40;98992.66;;;13.20;94.22
45621;BME280;31345;51.522;10.702;2023-03-21T11:16:20;98988.28;;;13.20;94.12
45621;BME280;31345;51.522;10.702;2023-03-21T11:18:58;98983.94;;;13.42;94.19
45621;BME280;31345;51.522;10.702;2023-03-21T11:21:26;98976.38;;;13.49;92.13
45621;BME280;31345;51.522;10.702;2023-03-21T11:24:01;98971.84;;;13.74;87.40
45621;BME280;31345;51.522;10.702;2023-03-21T11:26:35;98966.78;;;13.82;90.12
45621;BME280;31345;51.522;10.702;2023-03-21T11:29:27;98967.25;;;13.87;88.06
45621;BME280;31345;51.522;10.702;2023-03-21T11:32:08;98962.09;;;13.86;86.70
45621;BME280;31345;51.522;10.702;2023-03-21T11:34:45;98956.88;;;13.74;84.26
45621;BME280;31345;51.522;10.702;2023-03-21T11:37:23;98961.22;;;13.75;88.17
45621;BME280;31345;51.522;10.702;2023-03-21T11:39:59;98965.25;;;13.80;89.32
45621;BME280;31345;51.522;10.702;2023-03-21T11:42:41;98964.69;;;13.97;87.97
45621;BME280;31345;51.522;10.702;2023-03-21T11:45:17;98963.47;;;13.69;87.96
45621;BME280;31345;51.522;10.702;2023-03-21T11:47:52;98967.72;;;13.81;90.13
45621;BME280;31345;51.522;10.702;2023-03-21T11:50:27;98962.88;;;13.77;89.50
45621;BME280;31345;51.522;10.702;2023-03-21T11:53:15;98965.19;;;13.58;90.53
45621;BME280;31345;51.522;10.702;2023-03-21T11:55:58;98957.69;;;13.19;90.20
45621;BME280;31345;51.522;10.702;2023-03-21T11:58:44;98958.53;;;13.20;89.07
45621;BME280;31345;51.522;10.702;2023-03-21T12:01:25;98948.50;;;13.25;89.11
45621;BME280;31345;51.522;10.702;2023-03-21T12:04:15;98945.53;;;13.07;90.07
45621;BME280;31345;51.522;10.702;2023-03-21T12:06:52;98949.03;;;13.07;89.24
45621;BME280;31345;51.522;10.702;2023-03-21T12:09:31;98945.53;;;13.18;90.04
45621;BME280;31345;51.522;10.702;2023-03-21T12:12:16;98942.22;;;12.93;90.04
45621;BME280;31345;51.522;10.702;2023-03-21T12:14:54;98942.00;;;12.96;91.00
45621;BME280;31345;51.522;10.702;2023-03-21T12:17:38;98934.81;;;12.98;90.48
45621;BME280;31345;51.522;10.702;2023-03-21T12:20:27;98930.53;;;13.09;89.18
45621;BME280;31345;51.522;10.702;2023-03-21T12:23:24;98929.88;;;13.40;90.34
45621;BME280;31345;51.522;10.702;2023-03-21T12:26:09;98920.50;;;13.70;88.89
45621;BME280;31345;51.522;10.702;2023-03-21T12:28:56;98922.84;;;13.73;88.32
45621;BME280;31345;51.522;10.702;2023-03-21T12:31:36;98913.34;;;14.14;85.78
45621;BME280;31345;51.522;10.702;2023-03-21T12:34:25;98910.41;;;14.08;84.71
45621;BME280;31345;51.522;10.702;2023-03-21T12:37:13;98908.78;;;14.17;85.18
45621;BME280;31345;51.522;10.702;2023-03-21T12:39:54;98905.41;;;14.26;85.72
45621;BME280;31345;51.522;10.702;2023-03-21T12:42:51;98906.91;;;13.86;86.51
45621;BME280;31345;51.522;10.702;2023-03-21T12:45:31;98902.09;;;13.91;86.88
45621;BME280;31345;51.522;10.702;2023-03-21T12:48:15;98907.63;;;13.67;87.62
45621;BME280;31345;51.522;10.702;2023-03-21T12:50:45;98904.25;;;13.65;83.90
45621;BME280;31345;51.522;10.702;2023-03-21T12:53:28;98902.84;;;13.60;88.59
45621;BME280;31345;51.522;10.702;2023-03-21T12:56:08;98898.91;;;13.55;88.58
45621;BME280;31345;51.522;10.702;2023-03-21T12:58:44;98895.59;;;13.41;88.04
45621;BME280;31345;51.522;10.702;2023-03-21T13:01:20;98902.34;;;13.22;88.60
45621;BME280;31345;51.522;10.702;2023-03-21T13:04:20;98907.38;;;13.14;88.89
45621;BME280;31345;51.522;10.702;2023-03-21T13:06:59;98904.41;;;12.96;90.46
45621;BME280;31345;51.522;10.702;2023-03-21T13:09:34;98889.53;;;12.85;90.80
45621;BME280;31345;51.522;10.702;2023-03-21T13:12:20;98898.59;;;12.81;91.51
45621;BME280;31345;51.522;10.702;2023-03-21T13:15:03;98887.84;;;12.84;91.28
45621;BME280;31345;51.522;10.702;2023-03-21T13:17:40;98890.09;;;12.77;92.55
45621;BME280;31345;51.522;10.702;2023-03-21T13:20:18;98888.31;;;12.78;91.53
45621;BME280;31345;51.522;10.702;2023-03-21T13:22:54;98891.91;;;12.77;90.92
45621;BME280;31345;51.522;10.702;2023-03-21T13:25:22;98886.31;;;12.70;91.71
45621;BME280;31345;51.522;10.702;2023-03-21T13:27:53;98887.63;;;12.64;92.30
45621;BME280;31345;51.522;10.702;2023-03-21T13:30:22;98878.91;;;12.64;91.82
45621;BME280;31345;51.522;10.702;2023-03-21T13:33:03;98875.09;;;12.56;91.20
45621;BME280;31345;51.522;10.702;2023-03-21T13:35:38;98878.81;;;12.65;89.45